SKBQSVMC

Guest
Details From SKBQ - Ernesto Cortissoz
To SVMC - LA CHINITA INTL
Flight Number -
Tags decoded
Created
Modified
Stats Distance 194 nm / 359 km
Max Altitude 0 ft / 0 m
Waypoints 3
Social Downloads 3
Likes 0
Share VATSIM

Download

Looking for another format? Having issues loading an existing format? Contact us
Advertisement - Login to hide

Notes

Requested: SKBQ OSAKA UPULA MIMER PUNOK KEXAN SVMC Unmatched points: UPULA MIMER PUNOK KEXAN

Route

SKBQ OSAKA SVMC

ID Type Via Altitude (ft/m) Position (lat/lon) Dist (leg/tot) Name
O SKBQ APT - 0 / 0 10.88959 / -74.78082 - / 0 nm Ernesto Cortissoz
OSAKA FIX - 0 / 0 11.13472 / -72.37611 142 / 142 nm
O SVMC APT - 0 / 0 10.55821 / -71.72786 51 / 194 nm LA CHINITA INTL

Altitude Profile

Advertisement - Login to hide

Weather


0- 5 10 15 20 25 30 35+ Temperature / °C

Clouds and Precipitation
Forecast for 2020-04-09 12:00 UTC. Updated 21 minutes ago

Ground ~20,000 ft ~40,000 ft Winds

SKBQ

Details ICAO SKBQ (BAQ)
Name Ernesto Cortissoz Intl
Region Colombia
Timezone America/Bogota (UTC-5.0)
Stats Elevation 98 ft / 30 m (AMSL)
Location 10.889600° -74.780900°
Runways 1
Magnetic Variation 8.021° W

METAR

SKBQ 090900Z 01007KT CAVOK 26/25 A2975 NOSIG

Decode

TAF

TAF SKBQ 090430Z 0906/1006 02014KT 9999 SCT015 BECMG 0910/0911 VRB02KT TEMPO 0911/0914 5000 BR BKN012 BECMG 0917/0918 03012KT TX33/0917Z TN26/0908Z

Decode

Departure Runways

ID Width Length Bearing (true/mag) Surface Threshold Overrun Markings Lighting
05 151 ft / 46 m 9,855 ft / 3,004 m 40.07° / 48.09° ASPHALT 0 ft / 0 m 197 ft / 60 m PREC-APP EDGE THRESHOLD ALSF-II REIL-OMNI
23 151 ft / 46 m 9,855 ft / 3,004 m 220.07° / 228.10° ASPHALT 0 ft / 0 m 577 ft / 176 m PREC-APP EDGE THRESHOLD REIL-OMNI

SVMC

Details ICAO SVMC (MAR)
Name La Chinita Intl
Region Venezuela
Timezone America/Caracas (UTC-4.0)
Stats Elevation 233 ft / 71 m (AMSL)
Location 10.558200° -71.727900°
Runways 2
Magnetic Variation 9.831° W

METAR

Not found

TAF

TAF SVMC 090400Z 0906/1006 07009KT 9000 DZ BKN010 TX30/19Z TN24/08Z BECMG 0906/0910 14006KT 9999 BKN016

Decode

Destination Runways

ID Width Length Bearing (true/mag) Surface Threshold Overrun Markings Lighting
03L 148 ft / 45 m 9,852 ft / 3,003 m 22.68° / 32.51° ASPHALT 0 ft / 0 m 131 ft / 40 m PREC-APP CENTERLINE EDGE THRESHOLD ALSF-I REIL-OMNI
03R 98 ft / 30 m 8,210 ft / 2,502 m 22.67° / 32.50° ASPHALT 0 ft / 0 m 0 ft / 0 m PREC-APP
21L 98 ft / 30 m 8,210 ft / 2,502 m 202.67° / 212.50° ASPHALT 0 ft / 0 m 0 ft / 0 m PREC-APP
21R 148 ft / 45 m 9,852 ft / 3,003 m 202.68° / 212.51° ASPHALT 0 ft / 0 m 984 ft / 300 m PREC-APP CENTERLINE EDGE THRESHOLD REIL-OMNI

Popular Alternatives